createdAt,value
2022-08-03T00:01:36.318Z,21.03
2022-08-03T00:04:40.831Z,20.92
2022-08-03T00:07:43.545Z,20.89
2022-08-03T00:10:47.217Z,20.86
2022-08-03T00:13:50.413Z,20.87
2022-08-03T00:16:52.682Z,20.85
2022-08-03T00:19:55.261Z,20.86
2022-08-03T00:22:57.610Z,20.82
2022-08-03T00:25:59.808Z,20.78
2022-08-03T00:29:02.779Z,20.75
2022-08-03T00:32:05.064Z,20.72
2022-08-03T00:35:09.917Z,20.68
2022-08-03T00:38:16.731Z,20.66
2022-08-03T00:41:19.263Z,20.68
2022-08-03T00:44:22.385Z,20.55
2022-08-03T00:47:25.070Z,20.53
2022-08-03T00:50:28.839Z,20.41
2022-08-03T00:53:32.033Z,20.33
2022-08-03T00:56:34.996Z,20.38
2022-08-03T00:59:39.143Z,20.45
2022-08-03T01:02:42.282Z,20.49
2022-08-03T01:05:45.219Z,20.49
2022-08-03T01:09:06.641Z,20.44
2022-08-03T01:12:25.607Z,20.35
2022-08-03T01:15:40.044Z,20.31
2022-08-03T01:18:45.220Z,20.08
2022-08-03T01:21:47.685Z,20.04
2022-08-03T01:24:54.853Z,19.98
2022-08-03T01:27:57.071Z,19.93
2022-08-03T01:31:02.263Z,20.03
2022-08-03T01:34:09.258Z,20.01
2022-08-03T01:37:20.712Z,19.95
2022-08-03T01:40:25.644Z,19.89
2022-08-03T01:44:26.643Z,19.94
2022-08-03T01:46:52.894Z,19.91
2022-08-03T01:49:58.276Z,19.98
2022-08-03T01:53:01.573Z,19.87
2022-08-03T01:56:06.010Z,19.73
2022-08-03T01:59:11.746Z,19.75
2022-08-03T02:02:27.544Z,19.72
2022-08-03T02:05:35.998Z,19.62
2022-08-03T02:08:40.064Z,19.62
2022-08-03T02:11:43.457Z,19.55
2022-08-03T02:14:46.768Z,19.59
2022-08-03T02:17:49.422Z,19.69
2022-08-03T02:20:52.528Z,19.63
2022-08-03T02:23:55.048Z,19.64
2022-08-03T02:26:58.867Z,19.63
2022-08-03T02:30:08.456Z,19.66
2022-08-03T02:33:12.693Z,19.65
2022-08-03T02:36:16.229Z,19.66
2022-08-03T02:39:21.210Z,19.67
2022-08-03T02:42:23.891Z,19.70
2022-08-03T02:45:27.602Z,19.71
2022-08-03T02:48:33.921Z,19.70
2022-08-03T02:51:39.817Z,19.63
2022-08-03T02:54:43.539Z,19.64
2022-08-03T02:57:46.912Z,19.62
2022-08-03T03:00:52.568Z,19.49
2022-08-03T03:03:57.835Z,19.47
2022-08-03T03:07:01.792Z,19.43
2022-08-03T03:10:06.760Z,19.36
2022-08-03T03:13:09.930Z,19.45
2022-08-03T03:16:14.176Z,19.46
2022-08-03T03:19:17.694Z,19.48
2022-08-03T03:22:21.041Z,19.42
2022-08-03T03:25:24.978Z,19.40
2022-08-03T03:28:27.887Z,19.37
2022-08-03T03:31:33.526Z,19.33
2022-08-03T03:34:36.748Z,19.29
2022-08-03T03:37:39.537Z,19.31
2022-08-03T03:40:42.285Z,19.33
2022-08-03T03:43:44.748Z,19.36
2022-08-03T03:46:46.917Z,19.30
2022-08-03T03:49:52.298Z,19.30
2022-08-03T03:52:54.907Z,19.33
2022-08-03T03:55:59.406Z,19.35
2022-08-03T03:59:05.074Z,19.41
2022-08-03T04:02:08.827Z,19.43
2022-08-03T04:05:29.832Z,19.46
2022-08-03T04:08:51.373Z,19.45
2022-08-03T04:11:54.253Z,19.47
2022-08-03T04:14:58.334Z,19.50
2022-08-03T04:18:02.198Z,19.55
2022-08-03T04:21:06.893Z,19.61
2022-08-03T04:24:10.618Z,19.64
2022-08-03T04:27:14.962Z,19.73
2022-08-03T04:30:17.597Z,19.79
2022-08-03T04:33:20.690Z,19.92
2022-08-03T04:36:27.771Z,19.98
2022-08-03T04:39:32.284Z,20.10
2022-08-03T04:42:35.390Z,20.21
2022-08-03T04:45:38.485Z,20.33
2022-08-03T04:48:44.619Z,20.51
2022-08-03T04:51:48.797Z,20.99
2022-08-03T04:54:51.659Z,21.45
2022-08-03T04:57:53.943Z,21.81
2022-08-03T05:00:57.003Z,21.94
2022-08-03T05:03:59.790Z,21.85
2022-08-03T05:07:11.772Z,21.81
2022-08-03T05:10:17.084Z,21.86
2022-08-03T05:13:19.409Z,21.96
2022-08-03T05:16:21.801Z,22.11
2022-08-03T05:19:24.248Z,22.29
2022-08-03T05:22:26.629Z,22.33
2022-08-03T05:25:28.977Z,22.52
2022-08-03T05:28:31.588Z,22.49
2022-08-03T05:31:34.257Z,22.52
2022-08-03T05:34:36.530Z,22.73
2022-08-03T05:37:38.707Z,22.77
2022-08-03T05:41:21.890Z,22.68
2022-08-03T05:44:20.918Z,22.81
2022-08-03T05:47:23.477Z,23.00
2022-08-03T05:50:25.638Z,22.96
2022-08-03T05:53:28.689Z,23.13
2022-08-03T05:56:31.217Z,23.24
2022-08-03T05:59:38.479Z,23.28
2022-08-03T06:02:40.799Z,23.29
2022-08-03T06:05:43.220Z,23.47
2022-08-03T06:09:03.430Z,23.58
2022-08-03T06:12:05.988Z,23.64
2022-08-03T06:15:11.330Z,23.80
2022-08-03T06:18:14.239Z,23.81
2022-08-03T06:21:16.484Z,23.69
2022-08-03T06:24:18.932Z,23.72
2022-08-03T06:27:36.375Z,23.73
2022-08-03T06:30:40.612Z,23.95
2022-08-03T06:34:30.197Z,23.99
2022-08-03T06:37:06.164Z,24.33
2022-08-03T06:40:09.166Z,24.45
2022-08-03T06:43:16.386Z,24.32
2022-08-03T06:46:18.719Z,24.45
2022-08-03T06:49:20.864Z,24.68
2022-08-03T06:52:37.593Z,24.76
2022-08-03T06:55:42.540Z,24.94
2022-08-03T06:58:45.189Z,24.99
2022-08-03T07:01:47.797Z,25.25
2022-08-03T07:04:50.969Z,25.20
2022-08-03T07:07:58.551Z,25.15
2022-08-03T07:11:01.011Z,25.49
2022-08-03T07:14:03.494Z,25.54
2022-08-03T07:17:11.766Z,25.70
2022-08-03T07:20:16.004Z,26.01
2022-08-03T07:23:19.211Z,26.17
2022-08-03T07:26:21.656Z,26.79
2022-08-03T07:29:23.785Z,28.96
2022-08-03T07:32:27.122Z,31.06
2022-08-03T07:35:32.337Z,33.25
2022-08-03T07:38:35.898Z,34.33
2022-08-03T07:41:38.572Z,35.31
2022-08-03T07:44:44.414Z,36.88
2022-08-03T07:47:53.408Z,37.59
2022-08-03T07:50:56.747Z,38.02
2022-08-03T07:53:59.444Z,37.94
2022-08-03T07:57:01.513Z,37.55
2022-08-03T08:00:09.301Z,38.00
2022-08-03T08:03:11.741Z,38.30
2022-08-03T08:06:15.357Z,38.86
2022-08-03T08:09:17.794Z,38.43
2022-08-03T08:12:20.371Z,38.12
2022-08-03T08:15:23.350Z,37.48
2022-08-03T08:18:25.811Z,34.16
2022-08-03T08:21:53.957Z,32.57
2022-08-03T08:24:50.601Z,30.89
2022-08-03T08:28:29.331Z,31.14
2022-08-03T08:31:18.085Z,30.69
2022-08-03T08:34:21.047Z,30.23
2022-08-03T08:37:23.366Z,30.24
2022-08-03T08:40:28.884Z,30.03
2022-08-03T08:43:31.214Z,29.63
2022-08-03T08:46:34.152Z,29.36
2022-08-03T08:49:39.285Z,29.40
2022-08-03T08:52:44.655Z,29.63
2022-08-03T08:55:58.576Z,28.26
2022-08-03T08:59:03.113Z,29.21
2022-08-03T09:02:06.241Z,29.40
2022-08-03T09:05:14.534Z,29.21
2022-08-03T09:08:16.996Z,28.89
2022-08-03T09:12:00.902Z,28.72
2022-08-03T09:15:07.455Z,29.15
2022-08-03T09:18:09.660Z,29.57
2022-08-03T09:21:36.493Z,30.02
2022-08-03T09:24:41.740Z,29.67
2022-08-03T09:27:44.966Z,29.56
2022-08-03T09:31:08.830Z,29.91
2022-08-03T09:34:12.923Z,30.17
2022-08-03T09:37:16.471Z,30.32
2022-08-03T09:40:34.516Z,30.50
2022-08-03T09:43:47.081Z,29.75
2022-08-03T09:46:59.168Z,29.86
2022-08-03T09:50:02.538Z,29.80
2022-08-03T09:53:05.100Z,30.43
2022-08-03T09:56:36.494Z,30.62
2022-08-03T09:59:33.813Z,30.92
2022-08-03T10:02:36.246Z,30.97
2022-08-03T10:05:44.806Z,30.63
2022-08-03T10:08:47.364Z,30.81
2022-08-03T10:11:50.254Z,31.03
2022-08-03T10:14:53.052Z,31.05
2022-08-03T10:17:56.127Z,30.77
2022-08-03T10:21:02.207Z,30.68
2022-08-03T10:24:05.280Z,31.40
2022-08-03T10:27:08.440Z,31.07
2022-08-03T10:30:11.866Z,31.51
2022-08-03T10:33:51.745Z,31.44
2022-08-03T10:36:44.872Z,31.86
2022-08-03T10:39:56.493Z,31.64
2022-08-03T10:43:10.322Z,31.90
2022-08-03T10:46:14.751Z,31.34
2022-08-03T10:49:25.523Z,31.96
2022-08-03T10:52:53.583Z,31.40
2022-08-03T10:56:14.901Z,31.72
2022-08-03T10:59:41.041Z,32.34
2022-08-03T11:03:02.473Z,31.69
2022-08-03T11:06:37.176Z,31.79
2022-08-03T11:09:43.813Z,32.28
2022-08-03T11:12:46.492Z,32.96
2022-08-03T11:15:49.666Z,32.77
2022-08-03T11:19:01.586Z,32.94
2022-08-03T11:22:04.932Z,32.94
2022-08-03T11:25:07.747Z,32.99
2022-08-03T11:28:25.556Z,32.80
2022-08-03T11:31:49.333Z,32.46
2022-08-03T11:35:08.704Z,31.41
2022-08-03T11:38:11.222Z,32.22
2022-08-03T11:41:33.080Z,32.56
2022-08-03T11:44:47.513Z,32.91
2022-08-03T11:47:52.561Z,33.06
2022-08-03T11:50:54.974Z,32.37
2022-08-03T11:53:58.698Z,32.17
2022-08-03T11:57:00.855Z,32.89
2022-08-03T12:00:04.421Z,32.67
2022-08-03T12:03:12.074Z,31.73
2022-08-03T12:06:15.708Z,31.76
2022-08-03T12:09:17.786Z,32.08
2022-08-03T12:12:23.735Z,32.56
2022-08-03T12:15:29.099Z,32.87
2022-08-03T12:18:31.369Z,33.01
2022-08-03T12:21:33.597Z,32.94
2022-08-03T12:24:42.544Z,32.83
2022-08-03T12:27:45.183Z,32.92
2022-08-03T12:30:48.652Z,32.75
2022-08-03T12:34:06.798Z,33.01
2022-08-03T12:37:22.163Z,33.18
2022-08-03T12:40:32.014Z,32.67
2022-08-03T12:43:37.633Z,32.51
2022-08-03T12:46:47.528Z,32.48
2022-08-03T12:49:51.171Z,31.68
2022-08-03T12:52:53.486Z,31.32
2022-08-03T12:56:05.702Z,31.68
2022-08-03T12:59:32.323Z,31.95
2022-08-03T13:02:37.682Z,32.30
2022-08-03T13:05:43.946Z,32.54
2022-08-03T13:08:48.008Z,32.63
2022-08-03T13:12:04.368Z,32.41
2022-08-03T13:15:10.574Z,32.08
2022-08-03T13:18:12.751Z,31.64
2022-08-03T13:21:20.648Z,31.63
2022-08-03T13:24:22.902Z,31.86
2022-08-03T13:28:03.421Z,32.40
2022-08-03T13:30:47.730Z,32.51
2022-08-03T13:33:49.905Z,32.83
2022-08-03T13:37:08.319Z,32.32
2022-08-03T13:40:11.882Z,31.65
2022-08-03T13:43:16.698Z,31.24
2022-08-03T13:46:20.510Z,31.22
2022-08-03T13:49:22.606Z,31.42
2022-08-03T13:52:24.826Z,31.73
2022-08-03T13:55:27.066Z,32.09
2022-08-03T13:58:29.192Z,32.23
2022-08-03T14:01:54.177Z,32.41
2022-08-03T14:04:53.947Z,31.60
2022-08-03T14:07:58.286Z,31.53
2022-08-03T14:11:07.662Z,31.71
2022-08-03T14:14:09.953Z,32.00
2022-08-03T14:17:12.223Z,32.38
2022-08-03T14:20:36.586Z,32.34
2022-08-03T14:23:38.616Z,32.37
2022-08-03T14:26:40.838Z,32.55
2022-08-03T14:29:42.893Z,32.50
2022-08-03T14:32:44.901Z,32.13
2022-08-03T14:35:47.357Z,32.40
2022-08-03T14:38:49.761Z,32.58
2022-08-03T14:41:51.841Z,32.55
2022-08-03T14:44:58.779Z,32.43
2022-08-03T14:50:30.922Z,32.36
2022-08-03T14:51:27.441Z,31.96
2022-08-03T14:54:34.357Z,32.06
2022-08-03T14:57:36.699Z,32.31
2022-08-03T15:00:39.290Z,32.24
2022-08-03T15:03:41.499Z,31.80
2022-08-03T15:06:44.059Z,31.26
2022-08-03T15:09:50.611Z,31.50
2022-08-03T15:12:54.659Z,31.61
2022-08-03T15:15:58.146Z,31.77
2022-08-03T15:19:02.638Z,31.90
2022-08-03T15:22:07.685Z,31.75
2022-08-03T15:26:32.174Z,32.01
2022-08-03T15:28:37.292Z,32.09
2022-08-03T15:31:40.426Z,32.21
2022-08-03T15:34:50.247Z,32.12
2022-08-03T15:37:53.237Z,32.09
2022-08-03T15:40:55.529Z,32.05
2022-08-03T15:43:57.742Z,32.32
2022-08-03T15:47:00.251Z,32.28
2022-08-03T15:50:06.532Z,31.93
2022-08-03T15:53:11.707Z,32.00
2022-08-03T15:56:18.449Z,32.08
2022-08-03T15:59:21.160Z,32.10
2022-08-03T16:02:23.724Z,31.87
2022-08-03T16:05:26.717Z,31.88
2022-08-03T16:08:29.614Z,31.88
2022-08-03T16:11:32.221Z,31.75
2022-08-03T16:14:45.610Z,31.57
2022-08-03T16:17:54.783Z,31.64
2022-08-03T16:20:58.157Z,31.25
2022-08-03T16:24:02.395Z,31.24
2022-08-03T16:27:36.796Z,31.36
2022-08-03T16:30:30.563Z,31.35
2022-08-03T16:33:36.015Z,31.25
2022-08-03T16:36:38.242Z,31.28
2022-08-03T16:39:41.206Z,31.23
2022-08-03T16:42:45.093Z,30.85
2022-08-03T16:45:47.389Z,30.80
2022-08-03T16:48:49.427Z,30.61
2022-08-03T16:51:51.554Z,30.69
2022-08-03T16:54:56.413Z,30.65
2022-08-03T16:58:02.789Z,30.61
2022-08-03T17:01:20.741Z,30.49
2022-08-03T17:04:25.409Z,30.39
2022-08-03T17:07:29.707Z,30.33
2022-08-03T17:10:33.073Z,30.22
2022-08-03T17:13:39.889Z,30.04
2022-08-03T17:16:54.569Z,29.91
2022-08-03T17:19:57.977Z,29.94
2022-08-03T17:23:34.437Z,29.76
2022-08-03T17:26:37.796Z,29.63
2022-08-03T17:29:47.631Z,29.59
2022-08-03T17:32:52.667Z,29.41
2022-08-03T17:36:00.379Z,29.40
2022-08-03T17:39:05.267Z,29.31
2022-08-03T17:42:31.045Z,29.19
2022-08-03T17:45:52.077Z,29.03
2022-08-03T17:48:55.029Z,29.00
2022-08-03T17:52:03.184Z,28.87
2022-08-03T17:55:55.682Z,28.63
2022-08-03T17:58:55.190Z,28.50
2022-08-03T18:02:30.489Z,28.35
2022-08-03T18:06:10.707Z,28.15
2022-08-03T18:09:04.881Z,27.95
2022-08-03T18:12:27.144Z,27.79
2022-08-03T18:15:33.663Z,27.66
2022-08-03T18:18:43.278Z,27.53
2022-08-03T18:22:03.676Z,27.36
2022-08-03T18:25:08.007Z,27.25
2022-08-03T18:28:18.632Z,27.12
2022-08-03T18:31:59.412Z,27.01
2022-08-03T18:34:53.700Z,26.91
2022-08-03T18:38:01.068Z,26.78
2022-08-03T18:41:15.750Z,26.65
2022-08-03T18:44:46.476Z,26.59
2022-08-03T18:48:07.292Z,26.53
2022-08-03T18:51:28.578Z,26.43
2022-08-03T18:55:02.640Z,26.28
2022-08-03T18:58:18.222Z,26.17
2022-08-03T19:01:59.980Z,26.05
2022-08-03T19:05:01.261Z,25.94
2022-08-03T19:08:13.705Z,25.85
2022-08-03T19:11:27.862Z,25.78
2022-08-03T19:14:41.618Z,25.74
2022-08-03T19:17:50.170Z,25.74
2022-08-03T19:20:56.542Z,25.63
2022-08-03T19:24:00.531Z,25.56
2022-08-03T19:27:03.129Z,25.49
2022-08-03T19:30:19.987Z,25.48
2022-08-03T19:33:30.004Z,25.41
2022-08-03T19:36:34.892Z,25.31
2022-08-03T19:39:43.986Z,25.29
2022-08-03T19:42:49.533Z,25.26
2022-08-03T19:46:06.003Z,25.17
2022-08-03T19:52:37.989Z,25.12
2022-08-03T19:55:47.416Z,25.06
2022-08-03T19:58:54.173Z,25.07
2022-08-03T20:01:56.953Z,25.08
2022-08-03T20:05:00.445Z,25.07
2022-08-03T20:08:05.660Z,25.09
2022-08-03T20:11:09.720Z,25.03
2022-08-03T20:14:20.695Z,24.97
2022-08-03T20:17:55.074Z,24.88
2022-08-03T20:20:55.588Z,24.80
2022-08-03T20:24:22.886Z,24.75
2022-08-03T20:27:30.334Z,24.71
2022-08-03T20:30:35.920Z,24.69
2022-08-03T20:33:46.624Z,24.66
2022-08-03T20:36:51.854Z,24.59
2022-08-03T20:39:54.929Z,24.59
2022-08-03T20:42:57.669Z,24.50
2022-08-03T20:46:29.397Z,24.37
2022-08-03T20:49:26.332Z,24.27
2022-08-03T20:52:33.118Z,24.21
2022-08-03T20:55:48.146Z,24.13
2022-08-03T20:59:14.990Z,24.12
2022-08-03T21:02:29.483Z,24.03
2022-08-03T21:05:47.695Z,24.00
2022-08-03T21:08:56.634Z,24.00
2022-08-03T21:12:04.542Z,23.94
2022-08-03T21:13:03.003Z,25.19
2022-08-03T21:15:09.904Z,23.93
2022-08-03T21:18:39.564Z,23.90
2022-08-03T21:21:47.156Z,23.82
2022-08-03T21:24:54.082Z,23.82
2022-08-03T21:28:01.591Z,23.85
2022-08-03T21:31:04.452Z,23.80
2022-08-03T21:34:12.509Z,23.79
2022-08-03T21:37:16.986Z,23.78
2022-08-03T21:40:22.207Z,23.78
2022-08-03T21:43:25.676Z,23.78
2022-08-03T21:46:32.810Z,23.71
2022-08-03T21:50:04.347Z,23.66
2022-08-03T21:53:00.327Z,23.58
2022-08-03T21:56:09.828Z,23.47
2022-08-03T21:59:20.336Z,23.42
2022-08-03T22:02:32.146Z,23.33
2022-08-03T22:05:44.037Z,23.26
2022-08-03T22:08:49.669Z,23.20
2022-08-03T22:11:54.413Z,23.10
2022-08-03T22:15:00.906Z,23.00
2022-08-03T22:18:05.664Z,22.95
2022-08-03T22:21:11.576Z,22.91
2022-08-03T22:24:16.066Z,22.89
2022-08-03T22:27:34.502Z,22.87
2022-08-03T22:30:38.428Z,22.83
2022-08-03T22:33:41.315Z,22.75
2022-08-03T22:36:44.025Z,22.70
2022-08-03T22:39:48.336Z,22.69
2022-08-03T22:42:52.489Z,22.65
2022-08-03T22:46:09.160Z,22.58
2022-08-03T22:49:16.488Z,22.57
2022-08-03T22:52:18.865Z,22.51
2022-08-03T22:55:24.953Z,22.35
2022-08-03T22:58:27.482Z,22.23
2022-08-03T23:01:35.990Z,22.32
2022-08-03T23:04:41.452Z,22.32
2022-08-03T23:07:45.712Z,22.33
2022-08-03T23:10:50.016Z,22.35
2022-08-03T23:13:53.771Z,22.37
2022-08-03T23:16:58.783Z,22.38
2022-08-03T23:20:09.288Z,22.38
2022-08-03T23:23:11.618Z,22.51
2022-08-03T23:26:18.128Z,22.33
2022-08-03T23:29:24.948Z,22.26
2022-08-03T23:32:29.754Z,22.13
2022-08-03T23:36:29.698Z,22.15
2022-08-03T23:39:18.191Z,22.06
2022-08-03T23:42:21.184Z,21.98
2022-08-03T23:45:30.220Z,21.94
2022-08-03T23:48:37.770Z,21.93
2022-08-03T23:51:47.440Z,21.90
2022-08-03T23:55:08.476Z,21.86
2022-08-03T23:58:19.416Z,21.82
